sensor_id;sensor_type;location;lat;lon;timestamp;P1;durP1;ratioP1;P2;durP2;ratioP2
72785;SDS011;60902;53.876;10.674;2022-10-31T00:00:12;26.20;;;21.33;;
72785;SDS011;60902;53.876;10.674;2022-10-31T00:00:23;25.77;;;21.30;;
72785;SDS011;60902;53.876;10.674;2022-10-31T00:00:34;25.13;;;21.23;;
72785;SDS011;60902;53.876;10.674;2022-10-31T00:00:45;25.30;;;22.00;;
72785;SDS011;60902;53.876;10.674;2022-10-31T00:00:56;25.13;;;22.17;;
72785;SDS011;60902;53.876;10.674;2022-10-31T00:01:09;25.42;;;22.25;;
72785;SDS011;60902;53.876;10.674;2022-10-31T00:01:23;25.92;;;21.20;;
72785;SDS011;60902;53.876;10.674;2022-10-31T00:01:36;26.33;;;20.83;;
72785;SDS011;60902;53.876;10.674;2022-10-31T00:01:48;25.80;;;20.67;;
72785;SDS011;60902;53.876;10.674;2022-10-31T00:01:59;24.77;;;20.17;;
72785;SDS011;60902;53.876;10.674;2022-10-31T00:02:10;24.15;;;20.00;;
72785;SDS011;60902;53.876;10.674;2022-10-31T00:02:21;24.45;;;20.52;;
72785;SDS011;60902;53.876;10.674;2022-10-31T00:02:32;24.75;;;20.65;;
72785;SDS011;60902;53.876;10.674;2022-10-31T00:02:43;25.58;;;21.35;;
72785;SDS011;60902;53.876;10.674;2022-10-31T00:02:54;26.38;;;21.35;;
72785;SDS011;60902;53.876;10.674;2022-10-31T00:03:05;26.98;;;21.35;;
72785;SDS011;60902;53.876;10.674;2022-10-31T00:03:17;27.40;;;21.23;;
72785;SDS011;60902;53.876;10.674;2022-10-31T00:03:28;27.25;;;21.63;;
72785;SDS011;60902;53.876;10.674;2022-10-31T00:03:39;27.25;;;21.85;;
72785;SDS011;60902;53.876;10.674;2022-10-31T00:03:50;26.05;;;21.55;;
72785;SDS011;60902;53.876;10.674;2022-10-31T00:04:02;26.23;;;21.45;;
72785;SDS011;60902;53.876;10.674;2022-10-31T00:04:13;26.25;;;21.27;;
72785;SDS011;60902;53.876;10.674;2022-10-31T00:04:24;26.77;;;21.15;;
72785;SDS011;60902;53.876;10.674;2022-10-31T00:04:36;27.17;;;21.10;;
72785;SDS011;60902;53.876;10.674;2022-10-31T00:04:48;26.13;;;20.55;;
72785;SDS011;60902;53.876;10.674;2022-10-31T00:04:59;25.70;;;20.27;;
72785;SDS011;60902;53.876;10.674;2022-10-31T00:05:10;26.45;;;20.63;;
72785;SDS011;60902;53.876;10.674;2022-10-31T00:05:21;28.00;;;21.13;;
72785;SDS011;60902;53.876;10.674;2022-10-31T00:05:32;26.83;;;20.90;;
72785;SDS011;60902;53.876;10.674;2022-10-31T00:05:43;24.95;;;19.75;;
72785;SDS011;60902;53.876;10.674;2022-10-31T00:05:55;24.67;;;19.50;;
72785;SDS011;60902;53.876;10.674;2022-10-31T00:06:06;26.10;;;20.25;;
72785;SDS011;60902;53.876;10.674;2022-10-31T00:06:19;27.20;;;21.52;;
72785;SDS011;60902;53.876;10.674;2022-10-31T00:06:30;27.23;;;22.20;;
72785;SDS011;60902;53.876;10.674;2022-10-31T00:06:41;26.38;;;21.73;;
72785;SDS011;60902;53.876;10.674;2022-10-31T00:06:52;25.15;;;21.08;;
72785;SDS011;60902;53.876;10.674;2022-10-31T00:07:03;25.30;;;20.85;;
72785;SDS011;60902;53.876;10.674;2022-10-31T00:07:15;25.58;;;20.85;;
72785;SDS011;60902;53.876;10.674;2022-10-31T00:07:25;25.43;;;21.00;;
72785;SDS011;60902;53.876;10.674;2022-10-31T00:07:36;25.35;;;20.35;;
72785;SDS011;60902;53.876;10.674;2022-10-31T00:07:47;26.55;;;20.90;;
72785;SDS011;60902;53.876;10.674;2022-10-31T00:08:02;26.33;;;20.98;;
72785;SDS011;60902;53.876;10.674;2022-10-31T00:08:13;26.13;;;20.67;;
72785;SDS011;60902;53.876;10.674;2022-10-31T00:08:24;26.80;;;21.25;;
72785;SDS011;60902;53.876;10.674;2022-10-31T00:08:36;28.27;;;21.90;;
72785;SDS011;60902;53.876;10.674;2022-10-31T00:08:47;27.25;;;21.85;;
72785;SDS011;60902;53.876;10.674;2022-10-31T00:09:02;26.35;;;21.30;;
72785;SDS011;60902;53.876;10.674;2022-10-31T00:09:14;26.15;;;21.65;;
72785;SDS011;60902;53.876;10.674;2022-10-31T00:09:26;25.88;;;20.75;;
72785;SDS011;60902;53.876;10.674;2022-10-31T00:09:36;24.48;;;19.90;;
72785;SDS011;60902;53.876;10.674;2022-10-31T00:09:48;25.42;;;19.88;;
72785;SDS011;60902;53.876;10.674;2022-10-31T00:09:59;25.80;;;19.27;;
72785;SDS011;60902;53.876;10.674;2022-10-31T00:10:11;26.77;;;19.23;;
72785;SDS011;60902;53.876;10.674;2022-10-31T00:10:22;25.92;;;19.63;;
72785;SDS011;60902;53.876;10.674;2022-10-31T00:10:33;27.48;;;20.63;;
72785;SDS011;60902;53.876;10.674;2022-10-31T00:10:47;27.27;;;20.63;;
72785;SDS011;60902;53.876;10.674;2022-10-31T00:10:59;25.70;;;19.75;;
72785;SDS011;60902;53.876;10.674;2022-10-31T00:11:10;25.80;;;19.95;;
72785;SDS011;60902;53.876;10.674;2022-10-31T00:11:21;25.48;;;20.40;;
72785;SDS011;60902;53.876;10.674;2022-10-31T00:11:32;25.73;;;20.77;;
72785;SDS011;60902;53.876;10.674;2022-10-31T00:11:45;26.02;;;20.55;;
72785;SDS011;60902;53.876;10.674;2022-10-31T00:11:55;26.10;;;20.70;;
72785;SDS011;60902;53.876;10.674;2022-10-31T00:12:06;25.92;;;20.58;;
72785;SDS011;60902;53.876;10.674;2022-10-31T00:12:17;25.98;;;20.17;;
72785;SDS011;60902;53.876;10.674;2022-10-31T00:12:28;25.33;;;19.88;;
72785;SDS011;60902;53.876;10.674;2022-10-31T00:12:39;25.50;;;20.00;;
72785;SDS011;60902;53.876;10.674;2022-10-31T00:12:52;25.30;;;19.63;;
72785;SDS011;60902;53.876;10.674;2022-10-31T00:13:03;26.17;;;20.27;;
72785;SDS011;60902;53.876;10.674;2022-10-31T00:13:14;25.23;;;20.60;;
72785;SDS011;60902;53.876;10.674;2022-10-31T00:13:26;24.73;;;20.40;;
72785;SDS011;60902;53.876;10.674;2022-10-31T00:13:37;24.25;;;19.85;;
72785;SDS011;60902;53.876;10.674;2022-10-31T00:13:48;25.88;;;19.67;;
72785;SDS011;60902;53.876;10.674;2022-10-31T00:13:59;25.73;;;19.65;;
72785;SDS011;60902;53.876;10.674;2022-10-31T00:14:11;24.98;;;19.17;;
72785;SDS011;60902;53.876;10.674;2022-10-31T00:14:22;23.90;;;19.58;;
72785;SDS011;60902;53.876;10.674;2022-10-31T00:14:33;25.43;;;19.73;;
72785;SDS011;60902;53.876;10.674;2022-10-31T00:14:44;26.00;;;20.20;;
72785;SDS011;60902;53.876;10.674;2022-10-31T00:14:56;25.77;;;20.02;;
72785;SDS011;60902;53.876;10.674;2022-10-31T00:15:07;25.55;;;20.13;;
72785;SDS011;60902;53.876;10.674;2022-10-31T00:15:18;25.42;;;20.40;;
72785;SDS011;60902;53.876;10.674;2022-10-31T00:15:29;24.85;;;20.08;;
72785;SDS011;60902;53.876;10.674;2022-10-31T00:15:40;23.80;;;20.10;;
72785;SDS011;60902;53.876;10.674;2022-10-31T00:15:51;24.67;;;20.10;;
72785;SDS011;60902;53.876;10.674;2022-10-31T00:16:02;25.58;;;20.58;;
72785;SDS011;60902;53.876;10.674;2022-10-31T00:16:14;26.13;;;20.15;;
72785;SDS011;60902;53.876;10.674;2022-10-31T00:16:27;25.38;;;19.92;;
72785;SDS011;60902;53.876;10.674;2022-10-31T00:16:38;25.05;;;19.33;;
72785;SDS011;60902;53.876;10.674;2022-10-31T00:16:50;24.42;;;18.95;;
72785;SDS011;60902;53.876;10.674;2022-10-31T00:17:01;23.85;;;18.63;;
72785;SDS011;60902;53.876;10.674;2022-10-31T00:17:12;22.33;;;18.15;;
72785;SDS011;60902;53.876;10.674;2022-10-31T00:17:23;22.63;;;18.27;;
72785;SDS011;60902;53.876;10.674;2022-10-31T00:17:34;22.85;;;18.35;;
72785;SDS011;60902;53.876;10.674;2022-10-31T00:17:46;22.88;;;18.55;;
72785;SDS011;60902;53.876;10.674;2022-10-31T00:17:58;22.40;;;18.23;;
72785;SDS011;60902;53.876;10.674;2022-10-31T00:18:09;22.67;;;18.40;;
72785;SDS011;60902;53.876;10.674;2022-10-31T00:18:20;22.27;;;18.02;;
72785;SDS011;60902;53.876;10.674;2022-10-31T00:18:31;22.10;;;17.50;;
72785;SDS011;60902;53.876;10.674;2022-10-31T00:18:42;22.70;;;17.95;;
72785;SDS011;60902;53.876;10.674;2022-10-31T00:18:54;24.70;;;19.02;;
72785;SDS011;60902;53.876;10.674;2022-10-31T00:19:07;24.60;;;19.02;;
72785;SDS011;60902;53.876;10.674;2022-10-31T00:19:19;24.83;;;18.70;;
72785;SDS011;60902;53.876;10.674;2022-10-31T00:19:30;23.88;;;18.52;;
72785;SDS011;60902;53.876;10.674;2022-10-31T00:19:41;23.35;;;18.73;;
72785;SDS011;60902;53.876;10.674;2022-10-31T00:19:52;23.37;;;18.83;;
72785;SDS011;60902;53.876;10.674;2022-10-31T00:20:03;23.60;;;19.10;;
72785;SDS011;60902;53.876;10.674;2022-10-31T00:20:14;23.15;;;18.92;;
72785;SDS011;60902;53.876;10.674;2022-10-31T00:20:25;22.98;;;18.60;;
72785;SDS011;60902;53.876;10.674;2022-10-31T00:20:37;23.45;;;18.27;;
72785;SDS011;60902;53.876;10.674;2022-10-31T00:20:48;23.52;;;18.25;;
72785;SDS011;60902;53.876;10.674;2022-10-31T00:21:00;23.90;;;17.83;;
72785;SDS011;60902;53.876;10.674;2022-10-31T00:21:13;23.10;;;18.30;;
72785;SDS011;60902;53.876;10.674;2022-10-31T00:21:26;23.13;;;18.42;;
72785;SDS011;60902;53.876;10.674;2022-10-31T00:21:38;23.20;;;18.70;;
72785;SDS011;60902;53.876;10.674;2022-10-31T00:21:51;23.77;;;18.70;;
72785;SDS011;60902;53.876;10.674;2022-10-31T00:22:02;23.90;;;17.95;;
72785;SDS011;60902;53.876;10.674;2022-10-31T00:22:15;24.65;;;17.67;;
72785;SDS011;60902;53.876;10.674;2022-10-31T00:22:27;23.55;;;18.20;;
72785;SDS011;60902;53.876;10.674;2022-10-31T00:22:39;22.20;;;17.60;;
72785;SDS011;60902;53.876;10.674;2022-10-31T00:22:50;21.48;;;17.52;;
72785;SDS011;60902;53.876;10.674;2022-10-31T00:23:01;22.10;;;18.20;;
72785;SDS011;60902;53.876;10.674;2022-10-31T00:23:12;22.83;;;18.10;;
72785;SDS011;60902;53.876;10.674;2022-10-31T00:23:23;21.47;;;17.23;;
72785;SDS011;60902;53.876;10.674;2022-10-31T00:23:34;21.00;;;17.30;;
72785;SDS011;60902;53.876;10.674;2022-10-31T00:23:46;20.67;;;17.88;;
72785;SDS011;60902;53.876;10.674;2022-10-31T00:23:58;21.27;;;18.17;;
72785;SDS011;60902;53.876;10.674;2022-10-31T00:24:10;21.95;;;18.02;;
72785;SDS011;60902;53.876;10.674;2022-10-31T00:24:21;23.02;;;18.45;;
72785;SDS011;60902;53.876;10.674;2022-10-31T00:24:32;22.77;;;17.77;;
72785;SDS011;60902;53.876;10.674;2022-10-31T00:24:43;21.65;;;17.35;;
72785;SDS011;60902;53.876;10.674;2022-10-31T00:24:54;21.17;;;16.95;;
72785;SDS011;60902;53.876;10.674;2022-10-31T00:25:05;22.02;;;17.77;;
72785;SDS011;60902;53.876;10.674;2022-10-31T00:25:17;21.60;;;17.55;;
72785;SDS011;60902;53.876;10.674;2022-10-31T00:25:29;21.70;;;17.50;;
72785;SDS011;60902;53.876;10.674;2022-10-31T00:25:43;21.52;;;17.02;;
72785;SDS011;60902;53.876;10.674;2022-10-31T00:25:54;21.30;;;17.08;;
72785;SDS011;60902;53.876;10.674;2022-10-31T00:26:11;21.00;;;17.05;;
72785;SDS011;60902;53.876;10.674;2022-10-31T00:26:22;21.73;;;17.15;;
72785;SDS011;60902;53.876;10.674;2022-10-31T00:26:33;20.92;;;16.95;;
72785;SDS011;60902;53.876;10.674;2022-10-31T00:26:48;21.35;;;16.88;;
72785;SDS011;60902;53.876;10.674;2022-10-31T00:26:59;21.35;;;17.27;;
72785;SDS011;60902;53.876;10.674;2022-10-31T00:27:09;21.33;;;17.38;;
72785;SDS011;60902;53.876;10.674;2022-10-31T00:27:23;20.88;;;17.08;;
72785;SDS011;60902;53.876;10.674;2022-10-31T00:27:34;21.25;;;16.60;;
72785;SDS011;60902;53.876;10.674;2022-10-31T00:27:45;21.10;;;16.43;;
72785;SDS011;60902;53.876;10.674;2022-10-31T00:27:58;21.38;;;16.67;;
72785;SDS011;60902;53.876;10.674;2022-10-31T00:28:09;21.48;;;16.85;;
72785;SDS011;60902;53.876;10.674;2022-10-31T00:28:22;22.67;;;17.48;;
72785;SDS011;60902;53.876;10.674;2022-10-31T00:28:34;22.77;;;17.92;;
72785;SDS011;60902;53.876;10.674;2022-10-31T00:28:45;22.00;;;17.83;;
72785;SDS011;60902;53.876;10.674;2022-10-31T00:28:57;21.17;;;17.13;;
72785;SDS011;60902;53.876;10.674;2022-10-31T00:29:08;21.60;;;16.92;;
72785;SDS011;60902;53.876;10.674;2022-10-31T00:29:19;21.50;;;16.77;;
72785;SDS011;60902;53.876;10.674;2022-10-31T00:29:30;20.65;;;16.13;;
72785;SDS011;60902;53.876;10.674;2022-10-31T00:29:40;20.60;;;16.13;;
72785;SDS011;60902;53.876;10.674;2022-10-31T00:29:52;21.23;;;16.57;;
72785;SDS011;60902;53.876;10.674;2022-10-31T00:30:04;20.50;;;17.13;;
72785;SDS011;60902;53.876;10.674;2022-10-31T00:30:16;19.38;;;16.98;;
72785;SDS011;60902;53.876;10.674;2022-10-31T00:30:26;20.23;;;16.43;;
72785;SDS011;60902;53.876;10.674;2022-10-31T00:30:37;22.13;;;16.25;;
72785;SDS011;60902;53.876;10.674;2022-10-31T00:30:51;22.38;;;16.05;;
72785;SDS011;60902;53.876;10.674;2022-10-31T00:31:03;21.38;;;15.95;;
72785;SDS011;60902;53.876;10.674;2022-10-31T00:31:15;19.95;;;16.15;;
72785;SDS011;60902;53.876;10.674;2022-10-31T00:31:27;19.98;;;16.55;;
72785;SDS011;60902;53.876;10.674;2022-10-31T00:31:39;19.75;;;16.48;;
72785;SDS011;60902;53.876;10.674;2022-10-31T00:31:52;19.60;;;15.98;;
72785;SDS011;60902;53.876;10.674;2022-10-31T00:32:03;20.30;;;16.45;;
72785;SDS011;60902;53.876;10.674;2022-10-31T00:32:24;20.48;;;16.52;;
72785;SDS011;60902;53.876;10.674;2022-10-31T00:32:35;20.63;;;16.17;;
72785;SDS011;60902;53.876;10.674;2022-10-31T00:32:47;20.92;;;16.42;;
72785;SDS011;60902;53.876;10.674;2022-10-31T00:32:59;21.02;;;16.52;;
72785;SDS011;60902;53.876;10.674;2022-10-31T00:33:10;20.80;;;16.80;;
72785;SDS011;60902;53.876;10.674;2022-10-31T00:33:21;20.95;;;16.20;;
72785;SDS011;60902;53.876;10.674;2022-10-31T00:33:33;20.75;;;15.60;;
72785;SDS011;60902;53.876;10.674;2022-10-31T00:33:44;19.73;;;15.13;;
72785;SDS011;60902;53.876;10.674;2022-10-31T00:33:56;19.77;;;15.38;;
72785;SDS011;60902;53.876;10.674;2022-10-31T00:34:08;20.10;;;15.63;;
72785;SDS011;60902;53.876;10.674;2022-10-31T00:34:19;19.48;;;15.55;;
72785;SDS011;60902;53.876;10.674;2022-10-31T00:34:30;18.77;;;15.40;;
72785;SDS011;60902;53.876;10.674;2022-10-31T00:34:42;18.02;;;14.82;;
72785;SDS011;60902;53.876;10.674;2022-10-31T00:34:56;19.08;;;15.25;;
72785;SDS011;60902;53.876;10.674;2022-10-31T00:35:07;20.08;;;15.52;;
72785;SDS011;60902;53.876;10.674;2022-10-31T00:35:19;19.63;;;15.52;;
72785;SDS011;60902;53.876;10.674;2022-10-31T00:35:29;20.50;;;16.15;;
72785;SDS011;60902;53.876;10.674;2022-10-31T00:35:42;20.27;;;15.98;;
72785;SDS011;60902;53.876;10.674;2022-10-31T00:35:53;19.50;;;15.70;;
72785;SDS011;60902;53.876;10.674;2022-10-31T00:36:04;19.83;;;15.18;;
72785;SDS011;60902;53.876;10.674;2022-10-31T00:36:17;19.92;;;15.82;;
72785;SDS011;60902;53.876;10.674;2022-10-31T00:36:29;19.08;;;15.57;;
72785;SDS011;60902;53.876;10.674;2022-10-31T00:36:40;19.15;;;15.45;;
72785;SDS011;60902;53.876;10.674;2022-10-31T00:36:51;18.70;;;14.95;;
72785;SDS011;60902;53.876;10.674;2022-10-31T00:37:03;18.90;;;15.13;;
72785;SDS011;60902;53.876;10.674;2022-10-31T00:37:14;18.55;;;15.02;;
72785;SDS011;60902;53.876;10.674;2022-10-31T00:37:26;18.75;;;15.23;;
72785;SDS011;60902;53.876;10.674;2022-10-31T00:37:37;19.60;;;15.68;;
72785;SDS011;60902;53.876;10.674;2022-10-31T00:37:48;20.02;;;15.68;;
72785;SDS011;60902;53.876;10.674;2022-10-31T00:37:59;19.52;;;15.65;;
72785;SDS011;60902;53.876;10.674;2022-10-31T00:38:10;19.27;;;15.73;;
72785;SDS011;60902;53.876;10.674;2022-10-31T00:38:21;19.10;;;16.15;;
72785;SDS011;60902;53.876;10.674;2022-10-31T00:38:33;18.83;;;15.90;;
72785;SDS011;60902;53.876;10.674;2022-10-31T00:38:44;18.27;;;15.17;;
72785;SDS011;60902;53.876;10.674;2022-10-31T00:38:57;17.70;;;14.20;;
72785;SDS011;60902;53.876;10.674;2022-10-31T00:39:08;18.00;;;14.18;;
72785;SDS011;60902;53.876;10.674;2022-10-31T00:39:19;18.50;;;14.00;;
72785;SDS011;60902;53.876;10.674;2022-10-31T00:39:30;18.85;;;13.93;;
72785;SDS011;60902;53.876;10.674;2022-10-31T00:39:41;18.83;;;14.30;;
72785;SDS011;60902;53.876;10.674;2022-10-31T00:39:52;18.55;;;15.25;;
72785;SDS011;60902;53.876;10.674;2022-10-31T00:40:04;19.05;;;15.85;;
72785;SDS011;60902;53.876;10.674;2022-10-31T00:40:16;18.20;;;14.52;;
72785;SDS011;60902;53.876;10.674;2022-10-31T00:40:28;17.92;;;14.40;;
72785;SDS011;60902;53.876;10.674;2022-10-31T00:40:39;17.75;;;14.20;;
72785;SDS011;60902;53.876;10.674;2022-10-31T00:40:50;17.58;;;14.18;;
72785;SDS011;60902;53.876;10.674;2022-10-31T00:41:01;17.75;;;14.27;;
72785;SDS011;60902;53.876;10.674;2022-10-31T00:41:13;18.10;;;14.73;;
72785;SDS011;60902;53.876;10.674;2022-10-31T00:41:25;18.67;;;14.48;;
72785;SDS011;60902;53.876;10.674;2022-10-31T00:41:36;19.00;;;14.50;;
72785;SDS011;60902;53.876;10.674;2022-10-31T00:41:48;18.80;;;14.88;;
72785;SDS011;60902;53.876;10.674;2022-10-31T00:41:59;18.13;;;14.68;;
72785;SDS011;60902;53.876;10.674;2022-10-31T00:42:10;17.25;;;14.68;;
72785;SDS011;60902;53.876;10.674;2022-10-31T00:42:21;17.13;;;14.13;;
72785;SDS011;60902;53.876;10.674;2022-10-31T00:42:32;17.88;;;14.18;;
72785;SDS011;60902;53.876;10.674;2022-10-31T00:42:44;18.33;;;14.15;;
72785;SDS011;60902;53.876;10.674;2022-10-31T00:42:55;17.92;;;14.30;;
72785;SDS011;60902;53.876;10.674;2022-10-31T00:43:07;17.30;;;14.07;;
72785;SDS011;60902;53.876;10.674;2022-10-31T00:43:19;17.42;;;13.65;;
72785;SDS011;60902;53.876;10.674;2022-10-31T00:43:31;17.33;;;13.20;;
72785;SDS011;60902;53.876;10.674;2022-10-31T00:43:42;16.77;;;13.05;;
72785;SDS011;60902;53.876;10.674;2022-10-31T00:43:53;16.42;;;13.75;;
72785;SDS011;60902;53.876;10.674;2022-10-31T00:44:04;17.08;;;14.40;;
72785;SDS011;60902;53.876;10.674;2022-10-31T00:44:15;17.42;;;14.38;;
72785;SDS011;60902;53.876;10.674;2022-10-31T00:44:26;17.40;;;14.07;;
72785;SDS011;60902;53.876;10.674;2022-10-31T00:44:37;17.05;;;14.05;;
72785;SDS011;60902;53.876;10.674;2022-10-31T00:44:48;17.58;;;13.95;;
72785;SDS011;60902;53.876;10.674;2022-10-31T00:44:59;17.07;;;13.87;;
72785;SDS011;60902;53.876;10.674;2022-10-31T00:45:11;17.48;;;14.10;;
72785;SDS011;60902;53.876;10.674;2022-10-31T00:45:22;17.58;;;14.27;;
72785;SDS011;60902;53.876;10.674;2022-10-31T00:45:33;17.35;;;14.00;;
72785;SDS011;60902;53.876;10.674;2022-10-31T00:45:44;16.93;;;13.43;;
72785;SDS011;60902;53.876;10.674;2022-10-31T00:45:55;16.67;;;13.43;;
72785;SDS011;60902;53.876;10.674;2022-10-31T00:46:06;17.80;;;13.70;;
72785;SDS011;60902;53.876;10.674;2022-10-31T00:46:17;17.67;;;13.45;;
72785;SDS011;60902;53.876;10.674;2022-10-31T00:46:29;17.27;;;13.52;;
72785;SDS011;60902;53.876;10.674;2022-10-31T00:46:40;17.13;;;13.93;;
72785;SDS011;60902;53.876;10.674;2022-10-31T00:46:51;16.77;;;14.38;;
72785;SDS011;60902;53.876;10.674;2022-10-31T00:47:02;16.30;;;13.82;;
72785;SDS011;60902;53.876;10.674;2022-10-31T00:47:13;15.93;;;13.38;;
72785;SDS011;60902;53.876;10.674;2022-10-31T00:47:24;16.50;;;13.73;;
72785;SDS011;60902;53.876;10.674;2022-10-31T00:47:35;17.40;;;13.73;;
72785;SDS011;60902;53.876;10.674;2022-10-31T00:47:46;18.67;;;14.60;;
72785;SDS011;60902;53.876;10.674;2022-10-31T00:47:58;19.25;;;15.10;;
72785;SDS011;60902;53.876;10.674;2022-10-31T00:48:09;18.30;;;14.65;;
72785;SDS011;60902;53.876;10.674;2022-10-31T00:48:20;16.67;;;13.80;;
72785;SDS011;60902;53.876;10.674;2022-10-31T00:48:31;16.38;;;13.45;;
72785;SDS011;60902;53.876;10.674;2022-10-31T00:48:42;16.45;;;13.73;;
72785;SDS011;60902;53.876;10.674;2022-10-31T00:48:53;17.50;;;14.13;;
72785;SDS011;60902;53.876;10.674;2022-10-31T00:49:04;17.65;;;14.02;;
72785;SDS011;60902;53.876;10.674;2022-10-31T00:49:15;17.45;;;13.88;;
72785;SDS011;60902;53.876;10.674;2022-10-31T00:49:26;16.80;;;13.90;;
72785;SDS011;60902;53.876;10.674;2022-10-31T00:49:38;16.15;;;13.40;;
72785;SDS011;60902;53.876;10.674;2022-10-31T00:49:50;16.88;;;13.55;;
72785;SDS011;60902;53.876;10.674;2022-10-31T00:50:00;16.88;;;13.73;;
72785;SDS011;60902;53.876;10.674;2022-10-31T00:50:11;17.98;;;14.30;;
72785;SDS011;60902;53.876;10.674;2022-10-31T00:50:22;17.67;;;14.30;;
72785;SDS011;60902;53.876;10.674;2022-10-31T00:50:33;17.10;;;14.40;;
72785;SDS011;60902;53.876;10.674;2022-10-31T00:50:44;16.88;;;14.13;;
72785;SDS011;60902;53.876;10.674;2022-10-31T00:50:56;16.27;;;13.75;;
72785;SDS011;60902;53.876;10.674;2022-10-31T00:51:07;16.38;;;13.38;;
72785;SDS011;60902;53.876;10.674;2022-10-31T00:51:19;16.65;;;13.40;;
72785;SDS011;60902;53.876;10.674;2022-10-31T00:51:31;16.40;;;13.18;;
72785;SDS011;60902;53.876;10.674;2022-10-31T00:51:42;15.70;;;12.95;;
72785;SDS011;60902;53.876;10.674;2022-10-31T00:51:52;15.77;;;12.77;;
72785;SDS011;60902;53.876;10.674;2022-10-31T00:52:03;16.08;;;12.73;;
72785;SDS011;60902;53.876;10.674;2022-10-31T00:52:14;16.52;;;12.93;;
72785;SDS011;60902;53.876;10.674;2022-10-31T00:52:25;16.13;;;12.83;;
72785;SDS011;60902;53.876;10.674;2022-10-31T00:52:37;16.35;;;13.13;;
72785;SDS011;60902;53.876;10.674;2022-10-31T00:52:48;16.17;;;13.10;;
72785;SDS011;60902;53.876;10.674;2022-10-31T00:52:59;16.27;;;13.27;;
72785;SDS011;60902;53.876;10.674;2022-10-31T00:53:10;17.00;;;13.95;;
72785;SDS011;60902;53.876;10.674;2022-10-31T00:53:21;16.65;;;13.77;;
72785;SDS011;60902;53.876;10.674;2022-10-31T00:53:32;16.95;;;13.35;;
72785;SDS011;60902;53.876;10.674;2022-10-31T00:53:43;15.95;;;12.85;;
72785;SDS011;60902;53.876;10.674;2022-10-31T00:53:54;16.45;;;13.27;;
72785;SDS011;60902;53.876;10.674;2022-10-31T00:54:06;15.77;;;13.13;;
72785;SDS011;60902;53.876;10.674;2022-10-31T00:54:17;16.27;;;12.77;;
72785;SDS011;60902;53.876;10.674;2022-10-31T00:54:27;15.57;;;12.37;;
72785;SDS011;60902;53.876;10.674;2022-10-31T00:54:40;16.08;;;12.82;;
72785;SDS011;60902;53.876;10.674;2022-10-31T00:54:51;16.02;;;12.80;;
72785;SDS011;60902;53.876;10.674;2022-10-31T00:55:02;15.90;;;12.32;;
72785;SDS011;60902;53.876;10.674;2022-10-31T00:55:14;15.98;;;12.52;;
72785;SDS011;60902;53.876;10.674;2022-10-31T00:55:25;15.55;;;12.25;;
72785;SDS011;60902;53.876;10.674;2022-10-31T00:55:37;15.55;;;12.25;;
72785;SDS011;60902;53.876;10.674;2022-10-31T00:55:48;15.80;;;12.20;;
72785;SDS011;60902;53.876;10.674;2022-10-31T00:55:59;16.33;;;12.48;;
72785;SDS011;60902;53.876;10.674;2022-10-31T00:56:10;15.10;;;12.07;;
72785;SDS011;60902;53.876;10.674;2022-10-31T00:56:21;14.93;;;12.17;;
72785;SDS011;60902;53.876;10.674;2022-10-31T00:56:32;15.18;;;12.48;;
72785;SDS011;60902;53.876;10.674;2022-10-31T00:56:43;15.63;;;12.68;;
72785;SDS011;60902;53.876;10.674;2022-10-31T00:56:54;15.98;;;12.82;;
72785;SDS011;60902;53.876;10.674;2022-10-31T00:57:05;15.55;;;12.70;;
72785;SDS011;60902;53.876;10.674;2022-10-31T00:57:17;15.40;;;12.40;;
72785;SDS011;60902;53.876;10.674;2022-10-31T00:57:28;15.70;;;12.45;;
72785;SDS011;60902;53.876;10.674;2022-10-31T00:57:39;15.17;;;12.30;;
72785;SDS011;60902;53.876;10.674;2022-10-31T00:57:50;14.52;;;12.23;;
72785;SDS011;60902;53.876;10.674;2022-10-31T00:58:01;13.97;;;12.13;;
72785;SDS011;60902;53.876;10.674;2022-10-31T00:58:13;14.73;;;12.27;;
72785;SDS011;60902;53.876;10.674;2022-10-31T00:58:24;15.18;;;12.15;;
72785;SDS011;60902;53.876;10.674;2022-10-31T00:58:36;15.13;;;12.20;;
72785;SDS011;60902;53.876;10.674;2022-10-31T00:58:47;15.20;;;12.40;;
72785;SDS011;60902;53.876;10.674;2022-10-31T00:58:59;15.32;;;12.40;;
72785;SDS011;60902;53.876;10.674;2022-10-31T00:59:10;15.48;;;12.10;;
72785;SDS011;60902;53.876;10.674;2022-10-31T00:59:20;15.63;;;12.30;;
72785;SDS011;60902;53.876;10.674;2022-10-31T00:59:31;15.80;;;12.30;;
72785;SDS011;60902;53.876;10.674;2022-10-31T00:59:42;15.82;;;12.30;;
72785;SDS011;60902;53.876;10.674;2022-10-31T00:59:53;15.80;;;12.35;;
72785;SDS011;60902;53.876;10.674;2022-10-31T01:00:06;15.32;;;11.75;;
72785;SDS011;60902;53.876;10.674;2022-10-31T01:00:18;14.70;;;11.73;;
72785;SDS011;60902;53.876;10.674;2022-10-31T01:00:29;14.32;;;12.05;;
72785;SDS011;60902;53.876;10.674;2022-10-31T01:00:40;14.80;;;12.55;;
72785;SDS011;60902;53.876;10.674;2022-10-31T01:00:51;15.57;;;12.63;;
72785;SDS011;60902;53.876;10.674;2022-10-31T01:01:05;15.77;;;12.80;;
72785;SDS011;60902;53.876;10.674;2022-10-31T01:01:15;15.38;;;12.80;;
72785;SDS011;60902;53.876;10.674;2022-10-31T01:01:27;14.88;;;12.50;;
72785;SDS011;60902;53.876;10.674;2022-10-31T01:01:39;15.52;;;12.50;;
72785;SDS011;60902;53.876;10.674;2022-10-31T01:01:50;15.63;;;12.63;;
72785;SDS011;60902;53.876;10.674;2022-10-31T01:02:01;15.25;;;12.63;;
72785;SDS011;60902;53.876;10.674;2022-10-31T01:02:12;14.55;;;12.32;;
72785;SDS011;60902;53.876;10.674;2022-10-31T01:02:23;14.30;;;12.00;;
72785;SDS011;60902;53.876;10.674;2022-10-31T01:02:34;15.60;;;12.00;;
72785;SDS011;60902;53.876;10.674;2022-10-31T01:02:45;15.95;;;12.30;;
72785;SDS011;60902;53.876;10.674;2022-10-31T01:02:56;15.95;;;12.52;;
72785;SDS011;60902;53.876;10.674;2022-10-31T01:03:07;15.73;;;12.70;;
72785;SDS011;60902;53.876;10.674;2022-10-31T01:03:18;15.60;;;12.55;;
72785;SDS011;60902;53.876;10.674;2022-10-31T01:03:30;15.30;;;12.20;;
72785;SDS011;60902;53.876;10.674;2022-10-31T01:03:44;14.85;;;12.00;;
72785;SDS011;60902;53.876;10.674;2022-10-31T01:03:55;15.00;;;12.30;;
72785;SDS011;60902;53.876;10.674;2022-10-31T01:04:06;14.25;;;11.73;;
72785;SDS011;60902;53.876;10.674;2022-10-31T01:04:18;14.40;;;11.35;;
72785;SDS011;60902;53.876;10.674;2022-10-31T01:04:29;14.43;;;11.30;;
72785;SDS011;60902;53.876;10.674;2022-10-31T01:04:40;14.77;;;11.65;;
72785;SDS011;60902;53.876;10.674;2022-10-31T01:04:51;14.50;;;11.73;;
72785;SDS011;60902;53.876;10.674;2022-10-31T01:05:03;15.18;;;11.70;;
72785;SDS011;60902;53.876;10.674;2022-10-31T01:05:14;15.05;;;11.57;;
72785;SDS011;60902;53.876;10.674;2022-10-31T01:05:26;15.23;;;11.80;;
72785;SDS011;60902;53.876;10.674;2022-10-31T01:05:36;13.82;;;11.20;;
72785;SDS011;60902;53.876;10.674;2022-10-31T01:05:54;14.37;;;12.10;;
72785;SDS011;60902;53.876;10.674;2022-10-31T01:06:07;16.65;;;12.30;;
72785;SDS011;60902;53.876;10.674;2022-10-31T01:06:21;15.77;;;11.88;;